Archena, Spain
Current Conditions -  °F | °C
As of 10:00 PM on Sunday 21 Dec 2014 (Local Time) from LELC Reporting Station
Clear Clear  
Wind Chill: 48°   Ceiling: Unl
Heat Index: 48°   Visibility: 5mi
Dew Point: 46°   Wind: 2mph
Humidity: 93%   Direction: 300°WNW
Pressure: 30.48"   Gusts: NA
Location:  38.12°N, 1.3°W
Report Text: LELC 212100Z 30002KT 8000 NSC 09/08 Q1032 NOSIG
Loading
Personal Weather Stations






























Interactive Weather Map New forecast layout! Learn more

10-Day Weather Forecast

Advertisements
Track Severe Weather on mobile